sensor_id;sensor_type;location;lat;lon;timestamp;temperature;humidity
78886;DHT22;68269;52.514;5.722;2024-03-02T00:02:17;9.40;63.90
78886;DHT22;68269;52.514;5.722;2024-03-02T00:04:49;9.40;63.90
78886;DHT22;68269;52.514;5.722;2024-03-02T00:07:18;9.40;63.90
78886;DHT22;68269;52.514;5.722;2024-03-02T00:09:48;9.40;63.90
78886;DHT22;68269;52.514;5.722;2024-03-02T00:12:18;9.40;63.90
78886;DHT22;68269;52.514;5.722;2024-03-02T00:14:47;9.40;63.90
78886;DHT22;68269;52.514;5.722;2024-03-02T00:17:24;9.40;63.80
78886;DHT22;68269;52.514;5.722;2024-03-02T00:19:54;9.50;63.80
78886;DHT22;68269;52.514;5.722;2024-03-02T00:22:23;9.50;63.80
78886;DHT22;68269;52.514;5.722;2024-03-02T00:24:54;9.50;63.80
78886;DHT22;68269;52.514;5.722;2024-03-02T00:27:24;9.50;63.80
78886;DHT22;68269;52.514;5.722;2024-03-02T00:29:53;9.50;63.80
78886;DHT22;68269;52.514;5.722;2024-03-02T00:32:25;9.50;63.80
78886;DHT22;68269;52.514;5.722;2024-03-02T00:34:55;9.50;63.80
78886;DHT22;68269;52.514;5.722;2024-03-02T00:37:24;9.50;63.70
78886;DHT22;68269;52.514;5.722;2024-03-02T00:39:54;9.50;63.70
78886;DHT22;68269;52.514;5.722;2024-03-02T00:42:24;9.60;63.70
78886;DHT22;68269;52.514;5.722;2024-03-02T00:44:53;9.60;63.70
78886;DHT22;68269;52.514;5.722;2024-03-02T00:47:25;9.60;63.70
78886;DHT22;68269;52.514;5.722;2024-03-02T00:49:54;9.60;63.80
78886;DHT22;68269;52.514;5.722;2024-03-02T00:52:24;9.60;63.70
78886;DHT22;68269;52.514;5.722;2024-03-02T00:54:57;9.60;63.70
78886;DHT22;68269;52.514;5.722;2024-03-02T00:57:34;9.60;63.80
78886;DHT22;68269;52.514;5.722;2024-03-02T01:00:04;9.60;63.80
78886;DHT22;68269;52.514;5.722;2024-03-02T01:02:39;9.60;63.80
78886;DHT22;68269;52.514;5.722;2024-03-02T01:05:10;9.60;63.80
78886;DHT22;68269;52.514;5.722;2024-03-02T01:07:39;9.60;63.80
78886;DHT22;68269;52.514;5.722;2024-03-02T01:10:09;9.60;63.80
78886;DHT22;68269;52.514;5.722;2024-03-02T01:12:39;9.60;63.80
78886;DHT22;68269;52.514;5.722;2024-03-02T01:15:08;9.60;63.80
78886;DHT22;68269;52.514;5.722;2024-03-02T01:17:40;9.60;63.70
78886;DHT22;68269;52.514;5.722;2024-03-02T01:20:11;9.60;63.70
78886;DHT22;68269;52.514;5.722;2024-03-02T01:22:40;9.60;63.70
78886;DHT22;68269;52.514;5.722;2024-03-02T01:25:10;9.70;63.70
78886;DHT22;68269;52.514;5.722;2024-03-02T01:27:40;9.70;63.70
78886;DHT22;68269;52.514;5.722;2024-03-02T01:30:10;9.70;63.60
78886;DHT22;68269;52.514;5.722;2024-03-02T01:32:42;9.80;63.60
78886;DHT22;68269;52.514;5.722;2024-03-02T01:35:11;9.80;63.60
78886;DHT22;68269;52.514;5.722;2024-03-02T01:37:41;9.80;63.60
78886;DHT22;68269;52.514;5.722;2024-03-02T01:40:11;9.80;63.60
78886;DHT22;68269;52.514;5.722;2024-03-02T01:42:40;9.80;63.60
78886;DHT22;68269;52.514;5.722;2024-03-02T01:45:08;9.80;63.70
78886;DHT22;68269;52.514;5.722;2024-03-02T01:47:38;9.80;63.70
78886;DHT22;68269;52.514;5.722;2024-03-02T01:50:11;9.80;63.80
78886;DHT22;68269;52.514;5.722;2024-03-02T01:52:41;9.70;63.80
78886;DHT22;68269;52.514;5.722;2024-03-02T01:55:10;9.70;63.90
78886;DHT22;68269;52.514;5.722;2024-03-02T01:57:40;9.70;63.90
78886;DHT22;68269;52.514;5.722;2024-03-02T02:00:12;9.70;63.90
78886;DHT22;68269;52.514;5.722;2024-03-02T02:02:41;9.70;63.90
78886;DHT22;68269;52.514;5.722;2024-03-02T02:05:14;9.70;63.90
78886;DHT22;68269;52.514;5.722;2024-03-02T02:07:43;9.70;63.90
78886;DHT22;68269;52.514;5.722;2024-03-02T02:10:13;9.70;64.00
78886;DHT22;68269;52.514;5.722;2024-03-02T02:12:42;9.70;64.00
78886;DHT22;68269;52.514;5.722;2024-03-02T02:15:23;9.60;64.10
78886;DHT22;68269;52.514;5.722;2024-03-02T02:17:53;9.60;64.10
78886;DHT22;68269;52.514;5.722;2024-03-02T02:20:25;9.50;64.20
78886;DHT22;68269;52.514;5.722;2024-03-02T02:23:01;9.50;64.20
78886;DHT22;68269;52.514;5.722;2024-03-02T02:25:31;9.50;64.20
78886;DHT22;68269;52.514;5.722;2024-03-02T02:28:01;9.50;64.20
78886;DHT22;68269;52.514;5.722;2024-03-02T02:30:32;9.50;64.20
78886;DHT22;68269;52.514;5.722;2024-03-02T02:33:01;9.50;64.30
78886;DHT22;68269;52.514;5.722;2024-03-02T02:35:30;9.50;64.20
78886;DHT22;68269;52.514;5.722;2024-03-02T02:38:03;9.50;64.30
78886;DHT22;68269;52.514;5.722;2024-03-02T02:40:33;9.50;64.30
78886;DHT22;68269;52.514;5.722;2024-03-02T02:43:02;9.50;64.30
78886;DHT22;68269;52.514;5.722;2024-03-02T02:45:33;9.50;64.30
78886;DHT22;68269;52.514;5.722;2024-03-02T02:48:02;9.50;64.30
78886;DHT22;68269;52.514;5.722;2024-03-02T02:50:32;9.40;64.40
78886;DHT22;68269;52.514;5.722;2024-03-02T02:53:04;9.40;64.40
78886;DHT22;68269;52.514;5.722;2024-03-02T02:55:36;9.40;64.40
78886;DHT22;68269;52.514;5.722;2024-03-02T02:58:06;9.40;64.40
78886;DHT22;68269;52.514;5.722;2024-03-02T03:00:36;9.40;64.40
78886;DHT22;68269;52.514;5.722;2024-03-02T03:03:05;9.40;64.50
78886;DHT22;68269;52.514;5.722;2024-03-02T03:05:34;9.30;64.50
78886;DHT22;68269;52.514;5.722;2024-03-02T03:08:06;9.20;64.60
78886;DHT22;68269;52.514;5.722;2024-03-02T03:10:35;9.20;64.60
78886;DHT22;68269;52.514;5.722;2024-03-02T03:13:05;9.20;64.70
78886;DHT22;68269;52.514;5.722;2024-03-02T03:15:35;9.20;64.70
78886;DHT22;68269;52.514;5.722;2024-03-02T03:18:05;9.20;64.70
78886;DHT22;68269;52.514;5.722;2024-03-02T03:20:36;9.20;64.80
78886;DHT22;68269;52.514;5.722;2024-03-02T03:23:08;9.10;64.80
78886;DHT22;68269;52.514;5.722;2024-03-02T03:25:41;9.00;64.80
78886;DHT22;68269;52.514;5.722;2024-03-02T03:28:10;9.00;64.90
78886;DHT22;68269;52.514;5.722;2024-03-02T03:30:40;9.00;65.00
78886;DHT22;68269;52.514;5.722;2024-03-02T03:33:09;9.00;65.00
78886;DHT22;68269;52.514;5.722;2024-03-02T03:35:38;9.00;65.00
78886;DHT22;68269;52.514;5.722;2024-03-02T03:38:10;9.00;65.00
78886;DHT22;68269;52.514;5.722;2024-03-02T03:40:40;9.00;65.10
78886;DHT22;68269;52.514;5.722;2024-03-02T03:43:10;9.00;65.10
78886;DHT22;68269;52.514;5.722;2024-03-02T03:45:39;8.90;65.20
78886;DHT22;68269;52.514;5.722;2024-03-02T03:48:08;8.80;65.30
78886;DHT22;68269;52.514;5.722;2024-03-02T03:50:38;8.70;65.40
78886;DHT22;68269;52.514;5.722;2024-03-02T03:53:09;8.60;65.50
78886;DHT22;68269;52.514;5.722;2024-03-02T03:55:40;8.60;65.60
78886;DHT22;68269;52.514;5.722;2024-03-02T03:58:12;8.60;65.60
78886;DHT22;68269;52.514;5.722;2024-03-02T04:00:42;8.60;65.60
78886;DHT22;68269;52.514;5.722;2024-03-02T04:03:12;8.60;65.60
78886;DHT22;68269;52.514;5.722;2024-03-02T04:05:41;8.60;65.70
78886;DHT22;68269;52.514;5.722;2024-03-02T04:08:13;8.60;65.80
78886;DHT22;68269;52.514;5.722;2024-03-02T04:10:42;8.60;65.80
78886;DHT22;68269;52.514;5.722;2024-03-02T04:13:11;8.60;65.80
78886;DHT22;68269;52.514;5.722;2024-03-02T04:15:41;8.60;65.90
78886;DHT22;68269;52.514;5.722;2024-03-02T04:18:10;8.50;65.90
78886;DHT22;68269;52.514;5.722;2024-03-02T04:20:40;8.50;66.00
78886;DHT22;68269;52.514;5.722;2024-03-02T04:23:09;8.50;66.00
78886;DHT22;68269;52.514;5.722;2024-03-02T04:25:41;8.50;66.10
78886;DHT22;68269;52.514;5.722;2024-03-02T04:28:10;8.50;66.10
78886;DHT22;68269;52.514;5.722;2024-03-02T04:30:42;8.40;66.20
78886;DHT22;68269;52.514;5.722;2024-03-02T04:33:12;8.40;66.20
78886;DHT22;68269;52.514;5.722;2024-03-02T04:35:41;8.40;66.20
78886;DHT22;68269;52.514;5.722;2024-03-02T04:38:10;8.40;66.20
78886;DHT22;68269;52.514;5.722;2024-03-02T04:40:42;8.40;66.20
78886;DHT22;68269;52.514;5.722;2024-03-02T04:43:11;8.40;66.30
78886;DHT22;68269;52.514;5.722;2024-03-02T04:45:42;8.40;66.30
78886;DHT22;68269;52.514;5.722;2024-03-02T04:48:11;8.30;66.40
78886;DHT22;68269;52.514;5.722;2024-03-02T04:50:41;8.30;66.40
78886;DHT22;68269;52.514;5.722;2024-03-02T04:53:10;8.30;66.40
78886;DHT22;68269;52.514;5.722;2024-03-02T04:55:42;8.30;66.40
78886;DHT22;68269;52.514;5.722;2024-03-02T04:58:36;8.40;66.40
78886;DHT22;68269;52.514;5.722;2024-03-02T05:01:05;8.30;66.40
78886;DHT22;68269;52.514;5.722;2024-03-02T05:03:34;8.30;66.40
78886;DHT22;68269;52.514;5.722;2024-03-02T05:06:04;8.30;66.40
78886;DHT22;68269;52.514;5.722;2024-03-02T05:08:34;8.30;66.40
78886;DHT22;68269;52.514;5.722;2024-03-02T05:11:06;8.40;66.40
78886;DHT22;68269;52.514;5.722;2024-03-02T05:13:48;8.40;66.40
78886;DHT22;68269;52.514;5.722;2024-03-02T05:16:17;8.40;66.40
78886;DHT22;68269;52.514;5.722;2024-03-02T05:18:46;8.40;66.50
78886;DHT22;68269;52.514;5.722;2024-03-02T05:21:16;8.30;66.40
78886;DHT22;68269;52.514;5.722;2024-03-02T05:23:45;8.30;66.40
78886;DHT22;68269;52.514;5.722;2024-03-02T05:26:17;8.30;66.50
78886;DHT22;68269;52.514;5.722;2024-03-02T05:28:46;8.30;66.50
78886;DHT22;68269;52.514;5.722;2024-03-02T05:31:18;8.30;66.50
78886;DHT22;68269;52.514;5.722;2024-03-02T05:33:47;8.20;66.60
78886;DHT22;68269;52.514;5.722;2024-03-02T05:36:16;8.20;66.60
78886;DHT22;68269;52.514;5.722;2024-03-02T05:38:46;8.20;66.60
78886;DHT22;68269;52.514;5.722;2024-03-02T05:41:18;8.10;66.70
78886;DHT22;68269;52.514;5.722;2024-03-02T05:43:48;8.10;66.70
78886;DHT22;68269;52.514;5.722;2024-03-02T05:46:17;8.10;66.70
78886;DHT22;68269;52.514;5.722;2024-03-02T05:48:46;8.00;66.80
78886;DHT22;68269;52.514;5.722;2024-03-02T05:51:15;8.00;66.80
78886;DHT22;68269;52.514;5.722;2024-03-02T05:53:45;8.00;66.80
78886;DHT22;68269;52.514;5.722;2024-03-02T05:56:14;8.00;66.80
78886;DHT22;68269;52.514;5.722;2024-03-02T05:58:46;8.00;66.90
78886;DHT22;68269;52.514;5.722;2024-03-02T06:01:27;8.00;66.90
78886;DHT22;68269;52.514;5.722;2024-03-02T06:03:57;8.00;66.80
78886;DHT22;68269;52.514;5.722;2024-03-02T06:06:27;8.00;66.90
78886;DHT22;68269;52.514;5.722;2024-03-02T06:08:58;7.90;66.80
78886;DHT22;68269;52.514;5.722;2024-03-02T06:11:28;7.90;66.80
78886;DHT22;68269;52.514;5.722;2024-03-02T06:14:00;7.90;66.90
78886;DHT22;68269;52.514;5.722;2024-03-02T06:16:33;7.90;66.90
78886;DHT22;68269;52.514;5.722;2024-03-02T06:19:02;7.90;66.90
78886;DHT22;68269;52.514;5.722;2024-03-02T06:21:31;7.80;66.90
78886;DHT22;68269;52.514;5.722;2024-03-02T06:24:01;7.90;66.90
78886;DHT22;68269;52.514;5.722;2024-03-02T06:26:30;7.90;66.80
78886;DHT22;68269;52.514;5.722;2024-03-02T06:29:02;7.90;66.90
78886;DHT22;68269;52.514;5.722;2024-03-02T06:31:31;7.90;66.90
78886;DHT22;68269;52.514;5.722;2024-03-02T06:34:01;7.90;66.80
78886;DHT22;68269;52.514;5.722;2024-03-02T06:36:31;7.90;66.80
78886;DHT22;68269;52.514;5.722;2024-03-02T06:39:00;7.90;66.80
78886;DHT22;68269;52.514;5.722;2024-03-02T06:41:29;8.00;66.80
78886;DHT22;68269;52.514;5.722;2024-03-02T06:44:01;8.00;66.70
78886;DHT22;68269;52.514;5.722;2024-03-02T06:46:31;8.00;66.70
78886;DHT22;68269;52.514;5.722;2024-03-02T06:49:01;8.00;66.70
78886;DHT22;68269;52.514;5.722;2024-03-02T06:51:31;8.00;66.60
78886;DHT22;68269;52.514;5.722;2024-03-02T06:54:00;8.00;66.60
78886;DHT22;68269;52.514;5.722;2024-03-02T06:56:29;8.00;66.60
78886;DHT22;68269;52.514;5.722;2024-03-02T06:59:02;8.00;66.60
78886;DHT22;68269;52.514;5.722;2024-03-02T07:01:31;8.00;66.60
78886;DHT22;68269;52.514;5.722;2024-03-02T07:04:00;8.00;66.60
78886;DHT22;68269;52.514;5.722;2024-03-02T07:06:33;8.00;66.50
78886;DHT22;68269;52.514;5.722;2024-03-02T07:09:02;8.10;66.50
78886;DHT22;68269;52.514;5.722;2024-03-02T07:11:31;8.20;66.50
78886;DHT22;68269;52.514;5.722;2024-03-02T07:14:03;8.20;66.50
78886;DHT22;68269;52.514;5.722;2024-03-02T07:16:33;8.20;66.50
78886;DHT22;68269;52.514;5.722;2024-03-02T07:19:00;8.20;66.50
78886;DHT22;68269;52.514;5.722;2024-03-02T07:21:30;8.20;66.50
78886;DHT22;68269;52.514;5.722;2024-03-02T07:23:59;8.20;66.50
78886;DHT22;68269;52.514;5.722;2024-03-02T07:26:29;8.20;66.50
78886;DHT22;68269;52.514;5.722;2024-03-02T07:28:59;8.20;66.50
78886;DHT22;68269;52.514;5.722;2024-03-02T07:31:31;8.20;66.50
78886;DHT22;68269;52.514;5.722;2024-03-02T07:34:01;8.20;66.50
78886;DHT22;68269;52.514;5.722;2024-03-02T07:36:30;8.20;66.50
78886;DHT22;68269;52.514;5.722;2024-03-02T07:39:00;8.20;66.50
78886;DHT22;68269;52.514;5.722;2024-03-02T07:41:26;8.10;66.50
78886;DHT22;68269;52.514;5.722;2024-03-02T07:43:56;8.10;66.50
78886;DHT22;68269;52.514;5.722;2024-03-02T07:46:25;8.10;66.50
78886;DHT22;68269;52.514;5.722;2024-03-02T07:48:57;8.20;66.50
78886;DHT22;68269;52.514;5.722;2024-03-02T07:51:26;8.20;66.50
78886;DHT22;68269;52.514;5.722;2024-03-02T07:53:55;8.20;66.40
78886;DHT22;68269;52.514;5.722;2024-03-02T07:56:25;8.30;66.40
78886;DHT22;68269;52.514;5.722;2024-03-02T07:58:54;8.30;66.40
78886;DHT22;68269;52.514;5.722;2024-03-02T08:01:27;8.40;66.30
78886;DHT22;68269;52.514;5.722;2024-03-02T08:04:00;8.40;66.30
78886;DHT22;68269;52.514;5.722;2024-03-02T08:06:30;8.40;66.20
78886;DHT22;68269;52.514;5.722;2024-03-02T08:09:00;8.50;66.20
78886;DHT22;68269;52.514;5.722;2024-03-02T08:11:31;8.50;66.10
78886;DHT22;68269;52.514;5.722;2024-03-02T08:14:01;8.60;66.00
78886;DHT22;68269;52.514;5.722;2024-03-02T08:16:30;8.60;65.90
78886;DHT22;68269;52.514;5.722;2024-03-02T08:19:03;8.60;65.90
78886;DHT22;68269;52.514;5.722;2024-03-02T08:21:32;8.60;65.80
78886;DHT22;68269;52.514;5.722;2024-03-02T08:24:02;8.70;65.80
78886;DHT22;68269;52.514;5.722;2024-03-02T08:26:32;8.80;65.60
78886;DHT22;68269;52.514;5.722;2024-03-02T08:29:01;8.90;65.60
78886;DHT22;68269;52.514;5.722;2024-03-02T08:31:30;8.90;65.50
78886;DHT22;68269;52.514;5.722;2024-03-02T08:34:02;8.90;65.50
78886;DHT22;68269;52.514;5.722;2024-03-02T08:36:32;9.00;65.50
78886;DHT22;68269;52.514;5.722;2024-03-02T08:39:02;9.00;65.30
78886;DHT22;68269;52.514;5.722;2024-03-02T08:41:41;9.10;65.30
78886;DHT22;68269;52.514;5.722;2024-03-02T08:44:11;9.10;65.30
78886;DHT22;68269;52.514;5.722;2024-03-02T08:46:40;9.20;65.30
78886;DHT22;68269;52.514;5.722;2024-03-02T08:49:12;9.20;65.20
78886;DHT22;68269;52.514;5.722;2024-03-02T08:51:42;9.30;65.10
78886;DHT22;68269;52.514;5.722;2024-03-02T08:54:11;9.40;65.10
78886;DHT22;68269;52.514;5.722;2024-03-02T08:56:40;9.40;65.10
78886;DHT22;68269;52.514;5.722;2024-03-02T08:59:10;9.40;65.10
78886;DHT22;68269;52.514;5.722;2024-03-02T09:01:39;9.40;65.10
78886;DHT22;68269;52.514;5.722;2024-03-02T09:04:12;9.40;65.10
78886;DHT22;68269;52.514;5.722;2024-03-02T09:06:41;9.40;65.00
78886;DHT22;68269;52.514;5.722;2024-03-02T09:09:10;9.50;65.00
78886;DHT22;68269;52.514;5.722;2024-03-02T09:11:40;9.50;64.90
78886;DHT22;68269;52.514;5.722;2024-03-02T09:14:09;9.60;64.90
78886;DHT22;68269;52.514;5.722;2024-03-02T09:16:38;9.70;64.70
78886;DHT22;68269;52.514;5.722;2024-03-02T09:19:07;9.70;64.70
78886;DHT22;68269;52.514;5.722;2024-03-02T09:21:39;9.70;64.60
78886;DHT22;68269;52.514;5.722;2024-03-02T09:24:10;9.70;64.60
78886;DHT22;68269;52.514;5.722;2024-03-02T09:26:40;9.70;64.60
78886;DHT22;68269;52.514;5.722;2024-03-02T09:29:09;9.80;64.50
78886;DHT22;68269;52.514;5.722;2024-03-02T09:31:39;9.80;64.40
78886;DHT22;68269;52.514;5.722;2024-03-02T09:34:09;9.90;64.40
78886;DHT22;68269;52.514;5.722;2024-03-02T09:36:41;9.90;64.30
78886;DHT22;68269;52.514;5.722;2024-03-02T09:39:10;10.00;64.20
78886;DHT22;68269;52.514;5.722;2024-03-02T09:41:40;10.00;64.20
78886;DHT22;68269;52.514;5.722;2024-03-02T09:44:10;10.00;64.10
78886;DHT22;68269;52.514;5.722;2024-03-02T09:46:40;10.10;64.10
78886;DHT22;68269;52.514;5.722;2024-03-02T09:49:10;10.10;64.00
78886;DHT22;68269;52.514;5.722;2024-03-02T09:51:46;10.20;63.90
78886;DHT22;68269;52.514;5.722;2024-03-02T09:54:16;10.20;63.80
78886;DHT22;68269;52.514;5.722;2024-03-02T09:56:47;10.30;63.80
78886;DHT22;68269;52.514;5.722;2024-03-02T09:59:17;10.40;63.70
78886;DHT22;68269;52.514;5.722;2024-03-02T10:01:56;10.40;63.60
78886;DHT22;68269;52.514;5.722;2024-03-02T10:04:28;10.50;63.50
78886;DHT22;68269;52.514;5.722;2024-03-02T10:07:15;10.60;63.50
78886;DHT22;68269;52.514;5.722;2024-03-02T10:09:45;10.70;63.30
78886;DHT22;68269;52.514;5.722;2024-03-02T10:12:18;10.70;63.30
78886;DHT22;68269;52.514;5.722;2024-03-02T10:14:48;10.80;63.20
78886;DHT22;68269;52.514;5.722;2024-03-02T10:17:19;10.80;63.10
78886;DHT22;68269;52.514;5.722;2024-03-02T10:19:48;10.90;63.00
78886;DHT22;68269;52.514;5.722;2024-03-02T10:22:23;10.90;63.00
78886;DHT22;68269;52.514;5.722;2024-03-02T10:24:53;11.00;62.80
78886;DHT22;68269;52.514;5.722;2024-03-02T10:27:25;11.10;62.80
78886;DHT22;68269;52.514;5.722;2024-03-02T10:29:56;11.10;62.60
78886;DHT22;68269;52.514;5.722;2024-03-02T10:32:26;11.30;62.50
78886;DHT22;68269;52.514;5.722;2024-03-02T10:34:56;11.40;62.40
78886;DHT22;68269;52.514;5.722;2024-03-02T10:37:28;11.40;62.30
78886;DHT22;68269;52.514;5.722;2024-03-02T10:40:04;11.50;62.20
78886;DHT22;68269;52.514;5.722;2024-03-02T10:42:35;11.50;62.00
78886;DHT22;68269;52.514;5.722;2024-03-02T10:45:06;11.70;61.90
78886;DHT22;68269;52.514;5.722;2024-03-02T10:47:37;11.70;61.80
78886;DHT22;68269;52.514;5.722;2024-03-02T10:50:07;11.80;61.70
78886;DHT22;68269;52.514;5.722;2024-03-02T10:52:40;11.90;61.60
78886;DHT22;68269;52.514;5.722;2024-03-02T10:55:09;11.90;61.50
78886;DHT22;68269;52.514;5.722;2024-03-02T10:57:50;12.00;61.30
78886;DHT22;68269;52.514;5.722;2024-03-02T11:00:20;12.10;61.20
78886;DHT22;68269;52.514;5.722;2024-03-02T11:02:57;12.20;61.10
78886;DHT22;68269;52.514;5.722;2024-03-02T11:05:28;12.20;61.00
78886;DHT22;68269;52.514;5.722;2024-03-02T11:08:02;12.30;60.90
78886;DHT22;68269;52.514;5.722;2024-03-02T11:10:35;12.50;60.80
78886;DHT22;68269;52.514;5.722;2024-03-02T11:13:09;12.50;60.70
78886;DHT22;68269;52.514;5.722;2024-03-02T11:15:40;12.50;60.60
78886;DHT22;68269;52.514;5.722;2024-03-02T11:18:14;12.50;60.50
78886;DHT22;68269;52.514;5.722;2024-03-02T11:20:44;12.70;60.40
78886;DHT22;68269;52.514;5.722;2024-03-02T11:23:16;12.80;60.30
78886;DHT22;68269;52.514;5.722;2024-03-02T11:25:45;13.00;60.10
78886;DHT22;68269;52.514;5.722;2024-03-02T11:28:14;13.10;60.00
78886;DHT22;68269;52.514;5.722;2024-03-02T11:30:50;13.10;60.00
78886;DHT22;68269;52.514;5.722;2024-03-02T11:33:24;13.10;59.80
78886;DHT22;68269;52.514;5.722;2024-03-02T11:35:57;13.10;59.80
78886;DHT22;68269;52.514;5.722;2024-03-02T11:38:35;13.10;59.80
78886;DHT22;68269;52.514;5.722;2024-03-02T11:41:06;13.30;59.60
78886;DHT22;68269;52.514;5.722;2024-03-02T11:43:38;13.30;59.60
78886;DHT22;68269;52.514;5.722;2024-03-02T11:46:10;13.30;59.50
78886;DHT22;68269;52.514;5.722;2024-03-02T11:48:40;13.40;59.40
78886;DHT22;68269;52.514;5.722;2024-03-02T11:51:09;13.50;59.30
78886;DHT22;68269;52.514;5.722;2024-03-02T11:53:45;13.50;59.20
78886;DHT22;68269;52.514;5.722;2024-03-02T11:56:18;13.70;59.10
78886;DHT22;68269;52.514;5.722;2024-03-02T11:58:48;13.90;59.00
78886;DHT22;68269;52.514;5.722;2024-03-02T12:01:19;13.90;58.80
78886;DHT22;68269;52.514;5.722;2024-03-02T12:03:48;14.00;58.70
78886;DHT22;68269;52.514;5.722;2024-03-02T12:06:19;14.10;58.60
78886;DHT22;68269;52.514;5.722;2024-03-02T12:08:56;14.20;58.50
78886;DHT22;68269;52.514;5.722;2024-03-02T12:11:25;14.20;58.40
78886;DHT22;68269;52.514;5.722;2024-03-02T12:13:54;14.30;58.30
78886;DHT22;68269;52.514;5.722;2024-03-02T12:16:25;14.40;58.20
78886;DHT22;68269;52.514;5.722;2024-03-02T12:18:55;14.60;58.10
78886;DHT22;68269;52.514;5.722;2024-03-02T12:21:24;14.70;58.00
78886;DHT22;68269;52.514;5.722;2024-03-02T12:23:57;14.80;57.90
78886;DHT22;68269;52.514;5.722;2024-03-02T12:26:26;14.90;57.70
78886;DHT22;68269;52.514;5.722;2024-03-02T12:28:55;15.00;57.60
78886;DHT22;68269;52.514;5.722;2024-03-02T12:31:25;15.00;57.50
78886;DHT22;68269;52.514;5.722;2024-03-02T12:33:54;15.00;57.40
78886;DHT22;68269;52.514;5.722;2024-03-02T12:36:24;15.00;57.40
78886;DHT22;68269;52.514;5.722;2024-03-02T12:38:56;15.00;57.40
78886;DHT22;68269;52.514;5.722;2024-03-02T12:41:25;15.00;57.30
78886;DHT22;68269;52.514;5.722;2024-03-02T12:43:55;15.00;57.40
78886;DHT22;68269;52.514;5.722;2024-03-02T12:46:24;14.90;57.40
78886;DHT22;68269;52.514;5.722;2024-03-02T12:48:54;14.80;57.30
78886;DHT22;68269;52.514;5.722;2024-03-02T12:51:23;14.80;57.30
78886;DHT22;68269;52.514;5.722;2024-03-02T12:53:59;14.70;57.30
78886;DHT22;68269;52.514;5.722;2024-03-02T12:56:28;14.60;57.30
78886;DHT22;68269;52.514;5.722;2024-03-02T12:58:58;14.50;57.50
78886;DHT22;68269;52.514;5.722;2024-03-02T13:01:28;14.50;57.50
78886;DHT22;68269;52.514;5.722;2024-03-02T13:03:58;14.60;57.40
78886;DHT22;68269;52.514;5.722;2024-03-02T13:06:28;14.80;57.30
78886;DHT22;68269;52.514;5.722;2024-03-02T13:09:00;15.00;57.00
78886;DHT22;68269;52.514;5.722;2024-03-02T13:11:29;15.30;56.70
78886;DHT22;68269;52.514;5.722;2024-03-02T13:14:00;15.50;56.50
78886;DHT22;68269;52.514;5.722;2024-03-02T13:16:29;15.60;56.40
78886;DHT22;68269;52.514;5.722;2024-03-02T13:19:00;15.80;56.40
78886;DHT22;68269;52.514;5.722;2024-03-02T13:21:29;15.90;56.20
78886;DHT22;68269;52.514;5.722;2024-03-02T13:24:01;15.90;56.20
78886;DHT22;68269;52.514;5.722;2024-03-02T13:26:31;15.90;56.40
78886;DHT22;68269;52.514;5.722;2024-03-02T13:29:00;15.80;56.50
78886;DHT22;68269;52.514;5.722;2024-03-02T13:31:29;15.80;56.50
78886;DHT22;68269;52.514;5.722;2024-03-02T13:33:59;16.00;56.40
78886;DHT22;68269;52.514;5.722;2024-03-02T13:36:28;16.00;56.40
78886;DHT22;68269;52.514;5.722;2024-03-02T13:38:57;16.10;56.20
78886;DHT22;68269;52.514;5.722;2024-03-02T13:41:30;16.20;56.20
78886;DHT22;68269;52.514;5.722;2024-03-02T13:43:59;16.20;56.10
78886;DHT22;68269;52.514;5.722;2024-03-02T13:46:29;16.40;56.10
78886;DHT22;68269;52.514;5.722;2024-03-02T13:48:59;16.40;56.10
78886;DHT22;68269;52.514;5.722;2024-03-02T13:51:28;16.40;56.00
78886;DHT22;68269;52.514;5.722;2024-03-02T13:53:59;16.50;56.00
78886;DHT22;68269;52.514;5.722;2024-03-02T13:56:32;16.50;56.00
78886;DHT22;68269;52.514;5.722;2024-03-02T13:59:01;16.50;56.00
78886;DHT22;68269;52.514;5.722;2024-03-02T14:01:31;16.50;56.00
78886;DHT22;68269;52.514;5.722;2024-03-02T14:04:01;16.50;55.90
78886;DHT22;68269;52.514;5.722;2024-03-02T14:06:31;16.60;55.90
78886;DHT22;68269;52.514;5.722;2024-03-02T14:09:01;16.70;55.80
78886;DHT22;68269;52.514;5.722;2024-03-02T14:11:32;16.70;55.80
78886;DHT22;68269;52.514;5.722;2024-03-02T14:14:02;16.70;55.80
78886;DHT22;68269;52.514;5.722;2024-03-02T14:16:32;16.80;55.70
78886;DHT22;68269;52.514;5.722;2024-03-02T14:19:01;16.90;55.50
78886;DHT22;68269;52.514;5.722;2024-03-02T14:21:31;17.00;55.50
78886;DHT22;68269;52.514;5.722;2024-03-02T14:24:02;17.00;55.30
78886;DHT22;68269;52.514;5.722;2024-03-02T14:26:36;17.10;55.30
78886;DHT22;68269;52.514;5.722;2024-03-02T14:29:05;17.20;55.20
78886;DHT22;68269;52.514;5.722;2024-03-02T14:31:34;17.20;55.30
78886;DHT22;68269;52.514;5.722;2024-03-02T14:34:04;17.20;55.20
78886;DHT22;68269;52.514;5.722;2024-03-02T14:36:33;17.30;55.10
78886;DHT22;68269;52.514;5.722;2024-03-02T14:39:02;17.40;55.00
78886;DHT22;68269;52.514;5.722;2024-03-02T14:41:38;17.20;55.10
78886;DHT22;68269;52.514;5.722;2024-03-02T14:44:07;17.00;55.30
78886;DHT22;68269;52.514;5.722;2024-03-02T14:46:36;16.90;55.50
78886;DHT22;68269;52.514;5.722;2024-03-02T14:49:06;17.00;55.40
78886;DHT22;68269;52.514;5.722;2024-03-02T14:51:36;17.20;55.30
78886;DHT22;68269;52.514;5.722;2024-03-02T14:54:06;17.20;55.20
78886;DHT22;68269;52.514;5.722;2024-03-02T14:56:38;17.40;55.10
78886;DHT22;68269;52.514;5.722;2024-03-02T14:59:07;17.50;54.90
78886;DHT22;68269;52.514;5.722;2024-03-02T15:01:37;17.50;55.00
78886;DHT22;68269;52.514;5.722;2024-03-02T15:04:06;17.60;55.00
78886;DHT22;68269;52.514;5.722;2024-03-02T15:06:36;17.80;54.70
78886;DHT22;68269;52.514;5.722;2024-03-02T15:09:05;18.20;54.30
78886;DHT22;68269;52.514;5.722;2024-03-02T15:11:37;18.70;53.50
78886;DHT22;68269;52.514;5.722;2024-03-02T15:14:08;19.90;52.10
78886;DHT22;68269;52.514;5.722;2024-03-02T15:16:37;21.90;49.70
78886;DHT22;68269;52.514;5.722;2024-03-02T15:19:07;24.20;47.10
78886;DHT22;68269;52.514;5.722;2024-03-02T15:21:36;25.70;45.70
78886;DHT22;68269;52.514;5.722;2024-03-02T15:24:06;26.70;44.90
78886;DHT22;68269;52.514;5.722;2024-03-02T15:26:38;27.20;44.70
78886;DHT22;68269;52.514;5.722;2024-03-02T15:29:08;28.00;44.20
78886;DHT22;68269;52.514;5.722;2024-03-02T15:31:37;28.70;43.90
78886;DHT22;68269;52.514;5.722;2024-03-02T15:34:06;28.80;44.10
78886;DHT22;68269;52.514;5.722;2024-03-02T15:36:35;29.00;44.10
78886;DHT22;68269;52.514;5.722;2024-03-02T15:39:05;29.50;43.80
78886;DHT22;68269;52.514;5.722;2024-03-02T15:41:40;29.70;43.80
78886;DHT22;68269;52.514;5.722;2024-03-02T15:44:09;30.00;43.70
78886;DHT22;68269;52.514;5.722;2024-03-02T15:46:39;30.30;43.60
78886;DHT22;68269;52.514;5.722;2024-03-02T15:49:08;30.00;44.00
78886;DHT22;68269;52.514;5.722;2024-03-02T15:51:37;29.90;44.10
78886;DHT22;68269;52.514;5.722;2024-03-02T15:54:10;30.10;44.00
78886;DHT22;68269;52.514;5.722;2024-03-02T15:56:42;30.20;43.80
78886;DHT22;68269;52.514;5.722;2024-03-02T15:59:11;29.90;43.90
78886;DHT22;68269;52.514;5.722;2024-03-02T16:01:41;29.30;44.40